createdAt,value
2023-05-16T00:01:13.681Z,100.00
2023-05-16T00:03:43.498Z,100.00
2023-05-16T00:06:15.150Z,100.00
2023-05-16T00:08:45.471Z,100.00
2023-05-16T00:11:16.819Z,100.00
2023-05-16T00:13:47.341Z,100.00
2023-05-16T00:16:18.316Z,100.00
2023-05-16T00:18:48.111Z,100.00
2023-05-16T00:21:18.517Z,100.00
2023-05-16T00:23:48.429Z,100.00
2023-05-16T00:26:18.353Z,100.00
2023-05-16T00:28:49.487Z,100.00
2023-05-16T00:31:20.256Z,100.00
2023-05-16T00:33:49.547Z,100.00
2023-05-16T00:36:23.687Z,100.00
2023-05-16T00:38:54.488Z,100.00
2023-05-16T00:41:25.729Z,100.00
2023-05-16T00:43:55.726Z,100.00
2023-05-16T00:46:26.974Z,100.00
2023-05-16T00:48:56.860Z,100.00
2023-05-16T00:51:27.117Z,100.00
2023-05-16T00:53:58.872Z,100.00
2023-05-16T00:56:30.411Z,100.00
2023-05-16T00:59:01.058Z,100.00
2023-05-16T01:01:32.125Z,100.00
2023-05-16T01:04:02.100Z,100.00
2023-05-16T01:06:33.749Z,100.00
2023-05-16T01:09:04.079Z,100.00
2023-05-16T01:11:44.026Z,100.00
2023-05-16T01:14:20.001Z,100.00
2023-05-16T01:16:56.493Z,100.00
2023-05-16T01:19:51.241Z,100.00
2023-05-16T01:22:37.134Z,100.00
2023-05-16T01:25:31.615Z,100.00
2023-05-16T01:28:04.932Z,100.00
2023-05-16T01:30:39.748Z,100.00
2023-05-16T01:33:12.049Z,100.00
2023-05-16T01:35:53.898Z,100.00
2023-05-16T01:38:26.702Z,100.00
2023-05-16T01:41:01.138Z,100.00
2023-05-16T01:43:35.594Z,100.00
2023-05-16T01:46:11.372Z,100.00
2023-05-16T01:48:52.960Z,100.00
2023-05-16T01:51:27.991Z,100.00
2023-05-16T01:54:04.970Z,100.00
2023-05-16T01:56:37.529Z,100.00
2023-05-16T01:59:10.889Z,100.00
2023-05-16T02:01:41.184Z,100.00
2023-05-16T02:04:11.139Z,100.00
2023-05-16T02:06:42.321Z,100.00
2023-05-16T02:09:12.646Z,100.00
2023-05-16T02:11:44.195Z,100.00
2023-05-16T02:14:15.542Z,100.00
2023-05-16T02:16:45.772Z,100.00
2023-05-16T02:19:15.526Z,100.00
2023-05-16T02:21:45.228Z,100.00
2023-05-16T02:24:15.606Z,100.00
2023-05-16T02:26:46.129Z,100.00
2023-05-16T02:29:16.658Z,100.00
2023-05-16T02:31:46.780Z,100.00
2023-05-16T02:34:16.926Z,100.00
2023-05-16T02:36:47.626Z,100.00
2023-05-16T02:39:17.278Z,100.00
2023-05-16T02:41:47.458Z,100.00
2023-05-16T02:44:18.802Z,100.00
2023-05-16T02:46:49.185Z,100.00
2023-05-16T02:49:19.397Z,100.00
2023-05-16T02:51:50.592Z,100.00
2023-05-16T02:54:21.325Z,100.00
2023-05-16T02:56:51.238Z,100.00
2023-05-16T02:59:23.606Z,100.00
2023-05-16T03:01:53.892Z,100.00
2023-05-16T03:04:24.044Z,100.00
2023-05-16T03:06:54.372Z,100.00
2023-05-16T03:09:25.107Z,100.00
2023-05-16T03:11:55.631Z,100.00
2023-05-16T03:14:25.545Z,100.00
2023-05-16T03:16:57.095Z,100.00
2023-05-16T03:19:29.677Z,100.00
2023-05-16T03:22:00.168Z,100.00
2023-05-16T03:24:30.336Z,100.00
2023-05-16T03:27:01.052Z,100.00
2023-05-16T03:29:31.396Z,100.00
2023-05-16T03:32:02.778Z,100.00
2023-05-16T03:34:32.844Z,100.00
2023-05-16T03:37:03.571Z,100.00
2023-05-16T03:39:34.169Z,100.00
2023-05-16T03:42:07.219Z,100.00
2023-05-16T03:44:38.253Z,100.00
2023-05-16T03:47:09.106Z,100.00
2023-05-16T03:49:38.870Z,100.00
2023-05-16T03:52:10.427Z,100.00
2023-05-16T03:54:41.166Z,100.00
2023-05-16T03:57:11.482Z,100.00
2023-05-16T03:59:42.021Z,100.00
2023-05-16T04:02:12.817Z,100.00
2023-05-16T04:04:42.862Z,100.00
2023-05-16T04:07:13.606Z,100.00
2023-05-16T04:09:44.643Z,100.00
2023-05-16T04:12:15.060Z,100.00
2023-05-16T04:14:46.727Z,100.00
2023-05-16T04:17:17.333Z,100.00
2023-05-16T04:19:47.668Z,100.00
2023-05-16T04:22:17.997Z,100.00
2023-05-16T04:24:49.745Z,100.00
2023-05-16T04:27:20.111Z,100.00
2023-05-16T04:29:50.187Z,100.00
2023-05-16T04:32:23.601Z,100.00
2023-05-16T04:34:54.119Z,100.00
2023-05-16T04:37:24.703Z,100.00
2023-05-16T04:39:54.757Z,100.00
2023-05-16T04:42:25.489Z,100.00
2023-05-16T04:44:55.814Z,100.00
2023-05-16T04:47:25.950Z,100.00
2023-05-16T04:49:56.076Z,100.00
2023-05-16T04:52:26.375Z,100.00
2023-05-16T04:54:59.886Z,100.00
2023-05-16T04:57:29.866Z,100.00
2023-05-16T05:00:00.010Z,100.00
2023-05-16T05:02:31.585Z,100.00
2023-05-16T05:05:01.967Z,100.00
2023-05-16T05:07:32.557Z,100.00
2023-05-16T05:10:03.171Z,100.00
2023-05-16T05:12:34.281Z,100.00
2023-05-16T05:15:08.202Z,100.00
2023-05-16T05:17:39.294Z,100.00
2023-05-16T05:20:13.103Z,100.00
2023-05-16T05:22:43.356Z,100.00
2023-05-16T05:25:15.110Z,100.00
2023-05-16T05:27:45.448Z,100.00
2023-05-16T05:30:15.838Z,100.00
2023-05-16T05:32:46.121Z,100.00
2023-05-16T05:35:16.813Z,100.00
2023-05-16T05:37:47.138Z,100.00
2023-05-16T05:40:18.681Z,100.00
2023-05-16T05:42:49.219Z,100.00
2023-05-16T05:45:19.743Z,100.00
2023-05-16T05:47:49.897Z,100.00
2023-05-16T05:50:22.067Z,100.00
2023-05-16T05:52:50.892Z,100.00
2023-05-16T05:55:21.442Z,100.00
2023-05-16T05:57:51.579Z,100.00
2023-05-16T06:00:23.695Z,100.00
2023-05-16T06:02:54.014Z,100.00
2023-05-16T06:05:24.824Z,100.00
2023-05-16T06:07:54.700Z,100.00
2023-05-16T06:10:24.420Z,100.00
2023-05-16T06:12:54.529Z,100.00
2023-05-16T06:15:25.807Z,100.00
2023-05-16T06:17:56.062Z,100.00
2023-05-16T06:20:26.544Z,100.00
2023-05-16T06:22:56.644Z,100.00
2023-05-16T06:25:26.812Z,100.00
2023-05-16T06:27:57.440Z,100.00
2023-05-16T06:30:28.070Z,100.00
2023-05-16T06:32:58.198Z,100.00
2023-05-16T06:35:29.514Z,100.00
2023-05-16T06:38:00.215Z,100.00
2023-05-16T06:40:30.951Z,100.00
2023-05-16T06:43:01.679Z,100.00
2023-05-16T06:45:32.622Z,100.00
2023-05-16T06:48:03.198Z,100.00
2023-05-16T06:50:35.109Z,100.00
2023-05-16T06:53:04.550Z,100.00
2023-05-16T06:55:35.340Z,100.00
2023-05-16T06:58:06.076Z,100.00
2023-05-16T07:00:37.617Z,100.00
2023-05-16T07:03:07.439Z,100.00
2023-05-16T07:05:38.683Z,100.00
2023-05-16T07:08:10.649Z,100.00
2023-05-16T07:10:41.175Z,100.00
2023-05-16T07:13:11.096Z,100.00
2023-05-16T07:15:41.206Z,100.00
2023-05-16T07:18:11.588Z,100.00
2023-05-16T07:20:42.249Z,100.00
2023-05-16T07:23:16.840Z,100.00
2023-05-16T07:25:47.621Z,100.00
2023-05-16T07:28:23.703Z,100.00
2023-05-16T07:31:00.591Z,100.00
2023-05-16T07:33:30.891Z,100.00
2023-05-16T07:36:16.194Z,100.00
2023-05-16T07:38:48.449Z,100.00
2023-05-16T07:41:24.569Z,100.00
2023-05-16T07:43:57.567Z,100.00
2023-05-16T07:46:32.182Z,100.00
2023-05-16T07:49:06.577Z,100.00
2023-05-16T07:51:38.370Z,100.00
2023-05-16T07:54:10.046Z,100.00
2023-05-16T07:56:47.170Z,100.00
2023-05-16T07:59:18.007Z,100.00
2023-05-16T08:01:49.709Z,100.00
2023-05-16T08:04:20.404Z,100.00
2023-05-16T08:06:57.714Z,100.00
2023-05-16T08:09:31.324Z,100.00
2023-05-16T08:12:03.518Z,100.00
2023-05-16T08:14:34.216Z,100.00
2023-05-16T08:17:04.788Z,100.00
2023-05-16T08:19:35.278Z,100.00
2023-05-16T08:22:09.313Z,100.00
2023-05-16T08:24:39.820Z,100.00
2023-05-16T08:27:10.871Z,100.00
2023-05-16T08:29:41.619Z,100.00
2023-05-16T08:32:12.423Z,100.00
2023-05-16T08:34:42.337Z,100.00
2023-05-16T08:37:14.452Z,100.00
2023-05-16T08:39:45.848Z,100.00
2023-05-16T08:42:16.584Z,100.00
2023-05-16T08:44:47.540Z,100.00
2023-05-16T08:47:21.564Z,100.00
2023-05-16T08:49:56.024Z,100.00
2023-05-16T08:52:29.462Z,100.00
2023-05-16T08:57:35.722Z,100.00
2023-05-16T09:00:11.654Z,100.00
2023-05-16T09:02:44.260Z,100.00
2023-05-16T09:05:15.302Z,100.00
2023-05-16T09:07:47.141Z,100.00
2023-05-16T09:10:16.769Z,100.00
2023-05-16T09:12:47.502Z,100.00
2023-05-16T09:15:20.706Z,100.00
2023-05-16T09:17:51.365Z,100.00
2023-05-16T09:20:22.080Z,100.00
2023-05-16T09:22:54.706Z,100.00
2023-05-16T09:28:01.152Z,100.00
2023-05-16T09:30:33.576Z,100.00
2023-05-16T09:33:06.905Z,100.00
2023-05-16T09:38:15.753Z,100.00
2023-05-16T09:40:46.856Z,100.00
2023-05-16T09:43:18.668Z,100.00
2023-05-16T09:45:49.964Z,100.00
2023-05-16T09:48:21.324Z,100.00
2023-05-16T09:50:53.865Z,100.00
2023-05-16T09:53:28.281Z,100.00
2023-05-16T09:56:07.273Z,100.00
2023-05-16T09:58:38.372Z,100.00
2023-05-16T10:01:10.132Z,100.00
2023-05-16T10:03:42.227Z,100.00
2023-05-16T10:06:13.898Z,100.00
2023-05-16T10:08:46.129Z,100.00
2023-05-16T10:11:18.796Z,100.00
2023-05-16T10:13:52.777Z,100.00
2023-05-16T10:16:23.997Z,100.00
2023-05-16T10:18:55.971Z,100.00
2023-05-16T10:21:29.109Z,100.00
2023-05-16T10:24:03.516Z,100.00
2023-05-16T10:26:34.868Z,100.00
2023-05-16T10:29:05.842Z,100.00
2023-05-16T10:31:37.203Z,100.00
2023-05-16T10:34:09.695Z,100.00
2023-05-16T10:36:40.876Z,99.40
2023-05-16T10:39:12.423Z,98.67
2023-05-16T10:41:44.182Z,97.73
2023-05-16T10:44:16.134Z,96.56
2023-05-16T10:46:48.511Z,97.80
2023-05-16T10:49:25.531Z,98.47
2023-05-16T10:52:08.713Z,98.05
2023-05-16T10:54:40.891Z,99.51
2023-05-16T10:57:16.653Z,98.64
2023-05-16T10:59:48.803Z,98.17
2023-05-16T11:02:28.098Z,98.99
2023-05-16T11:05:00.295Z,98.59
2023-05-16T11:07:35.512Z,97.37
2023-05-16T11:10:11.768Z,96.94
2023-05-16T11:12:46.685Z,97.63
2023-05-16T11:15:22.644Z,97.03
2023-05-16T11:18:03.915Z,95.60
2023-05-16T11:20:34.610Z,94.25
2023-05-16T11:23:24.670Z,94.26
2023-05-16T11:26:00.034Z,94.16
2023-05-16T11:28:30.190Z,93.51
2023-05-16T11:31:02.735Z,93.75
2023-05-16T11:33:35.645Z,92.83
2023-05-16T11:36:15.874Z,92.44
2023-05-16T11:38:47.618Z,91.89
2023-05-16T11:41:19.172Z,90.83
2023-05-16T11:43:49.501Z,90.22
2023-05-16T11:46:20.891Z,90.30
2023-05-16T11:48:51.777Z,89.36
2023-05-16T11:51:22.918Z,87.54
2023-05-16T11:53:54.085Z,85.97
2023-05-16T11:56:24.555Z,85.90
2023-05-16T11:58:55.952Z,85.92
2023-05-16T12:01:25.448Z,85.21
2023-05-16T12:03:59.445Z,85.24
2023-05-16T12:06:31.201Z,84.70
2023-05-16T12:09:09.654Z,85.79
2023-05-16T12:11:42.095Z,85.27
2023-05-16T12:14:13.038Z,84.53
2023-05-16T12:16:45.972Z,84.85
2023-05-16T12:19:16.185Z,84.07
2023-05-16T12:21:46.938Z,83.50
2023-05-16T12:24:17.605Z,83.59
2023-05-16T12:26:48.335Z,83.36
2023-05-16T12:29:24.564Z,82.40
2023-05-16T12:31:55.403Z,81.90
2023-05-16T12:34:29.827Z,80.85
2023-05-16T12:37:01.932Z,80.74
2023-05-16T12:39:39.225Z,81.09
2023-05-16T12:42:16.177Z,80.54
2023-05-16T12:44:50.028Z,79.47
2023-05-16T12:47:20.950Z,79.49
2023-05-16T12:49:51.154Z,79.99
2023-05-16T12:52:22.517Z,80.05
2023-05-16T12:54:53.186Z,78.48
2023-05-16T12:57:23.883Z,78.65
2023-05-16T12:59:53.673Z,78.77
2023-05-16T13:02:23.673Z,77.80
2023-05-16T13:04:53.909Z,77.14
2023-05-16T13:07:24.261Z,77.58
2023-05-16T13:09:55.792Z,77.42
2023-05-16T13:12:27.279Z,76.92
2023-05-16T13:15:00.525Z,76.80
2023-05-16T13:17:30.884Z,76.54
2023-05-16T13:20:01.724Z,76.69
2023-05-16T13:22:32.884Z,76.85
2023-05-16T13:25:01.818Z,76.53
2023-05-16T13:27:33.506Z,76.44
2023-05-16T13:30:05.332Z,76.25
2023-05-16T13:32:36.146Z,76.64
2023-05-16T13:35:08.055Z,77.39
2023-05-16T13:37:39.168Z,76.95
2023-05-16T13:40:11.919Z,76.65
2023-05-16T13:42:42.497Z,76.47
2023-05-16T13:45:13.022Z,75.69
2023-05-16T13:47:45.156Z,74.96
2023-05-16T13:50:16.342Z,74.96
2023-05-16T13:52:48.705Z,75.15
2023-05-16T13:55:19.028Z,75.41
2023-05-16T13:57:49.544Z,74.76
2023-05-16T14:02:54.752Z,74.21
2023-05-16T14:05:24.812Z,74.26
2023-05-16T14:07:55.551Z,75.10
2023-05-16T14:10:26.471Z,75.53
2023-05-16T14:12:57.626Z,75.77
2023-05-16T14:15:29.104Z,77.59
2023-05-16T14:17:59.985Z,77.39
2023-05-16T14:20:29.800Z,77.83
2023-05-16T14:23:00.563Z,77.80
2023-05-16T14:25:31.485Z,77.66
2023-05-16T14:28:02.064Z,77.03
2023-05-16T14:30:32.751Z,76.91
2023-05-16T14:33:03.556Z,77.15
2023-05-16T14:35:34.225Z,76.24
2023-05-16T14:38:04.952Z,75.03
2023-05-16T14:40:35.502Z,75.81
2023-05-16T14:43:05.611Z,75.66
2023-05-16T14:45:36.542Z,75.61
2023-05-16T14:48:09.024Z,75.11
2023-05-16T14:50:39.234Z,75.30
2023-05-16T14:53:09.132Z,75.05
2023-05-16T14:55:40.440Z,74.87
2023-05-16T14:58:11.456Z,74.50
2023-05-16T15:00:40.897Z,73.06
2023-05-16T15:03:12.085Z,74.12
2023-05-16T15:05:43.225Z,74.40
2023-05-16T15:08:13.338Z,74.57
2023-05-16T15:10:43.438Z,74.28
2023-05-16T15:13:14.157Z,74.67
2023-05-16T15:15:44.321Z,74.18
2023-05-16T15:18:15.049Z,74.28
2023-05-16T15:20:45.167Z,73.74
2023-05-16T15:23:15.268Z,73.26
2023-05-16T15:25:46.017Z,72.52
2023-05-16T15:28:16.115Z,72.58
2023-05-16T15:30:46.248Z,72.73
2023-05-16T15:33:17.001Z,72.59
2023-05-16T15:35:48.049Z,72.46
2023-05-16T15:38:18.248Z,73.39
2023-05-16T15:40:58.103Z,72.84
2023-05-16T15:43:42.254Z,71.95
2023-05-16T15:46:13.010Z,72.02
2023-05-16T15:48:44.475Z,71.93
2023-05-16T15:51:15.457Z,71.04
2023-05-16T15:53:45.786Z,70.55
2023-05-16T15:56:16.524Z,70.08
2023-05-16T15:58:47.041Z,70.05
2023-05-16T16:01:17.430Z,69.44
2023-05-16T16:03:48.481Z,69.25
2023-05-16T16:06:21.932Z,69.32
2023-05-16T16:08:52.232Z,70.41
2023-05-16T16:11:24.553Z,70.96
2023-05-16T16:13:54.646Z,71.24
2023-05-16T16:16:24.473Z,71.12
2023-05-16T16:18:55.984Z,70.72
2023-05-16T16:21:26.080Z,70.66
2023-05-16T16:23:57.864Z,70.65
2023-05-16T16:26:28.592Z,70.02
2023-05-16T16:29:00.346Z,70.27
2023-05-16T16:31:29.507Z,68.92
2023-05-16T16:34:00.198Z,69.85
2023-05-16T16:36:31.935Z,69.97
2023-05-16T16:39:00.487Z,69.81
2023-05-16T16:41:31.143Z,70.19
2023-05-16T16:44:01.680Z,71.30
2023-05-16T16:46:32.866Z,71.62
2023-05-16T16:49:03.954Z,71.71
2023-05-16T16:51:34.665Z,71.72
2023-05-16T16:54:05.426Z,72.32
2023-05-16T16:56:36.153Z,72.77
2023-05-16T16:59:05.860Z,73.24
2023-05-16T17:01:36.792Z,73.44
2023-05-16T17:04:07.751Z,73.57
2023-05-16T17:06:38.475Z,74.47
2023-05-16T17:09:13.311Z,74.52
2023-05-16T17:11:46.494Z,74.90
2023-05-16T17:14:16.611Z,75.40
2023-05-16T17:16:47.396Z,75.34
2023-05-16T17:19:17.707Z,76.48
2023-05-16T17:21:50.247Z,77.41
2023-05-16T17:24:22.406Z,78.61
2023-05-16T17:26:53.342Z,79.32
2023-05-16T17:29:39.076Z,80.30
2023-05-16T17:32:13.278Z,80.82
2023-05-16T17:34:47.744Z,81.51
2023-05-16T17:37:21.408Z,82.91
2023-05-16T17:39:56.629Z,83.12
2023-05-16T17:42:30.717Z,84.35
2023-05-16T17:45:05.339Z,85.09
2023-05-16T17:47:39.699Z,86.50
2023-05-16T17:50:13.474Z,87.35
2023-05-16T17:52:47.638Z,88.66
2023-05-16T17:55:23.459Z,89.18
2023-05-16T17:57:57.232Z,90.04
2023-05-16T18:00:32.942Z,90.90
2023-05-16T18:03:07.352Z,91.95
2023-05-16T18:05:40.968Z,92.85
2023-05-16T18:08:15.050Z,93.80
2023-05-16T18:10:51.696Z,94.74
2023-05-16T18:13:26.073Z,94.95
2023-05-16T18:16:00.426Z,95.87
2023-05-16T18:18:37.746Z,96.03
2023-05-16T18:21:12.453Z,96.96
2023-05-16T18:23:46.362Z,97.31
2023-05-16T18:26:20.203Z,97.85
2023-05-16T18:28:54.477Z,97.88
2023-05-16T18:31:30.884Z,97.77
2023-05-16T18:34:04.969Z,98.27
2023-05-16T18:36:38.719Z,98.39
2023-05-16T18:39:12.950Z,98.04
2023-05-16T18:41:48.383Z,98.35
2023-05-16T18:44:22.808Z,98.45
2023-05-16T18:46:58.968Z,98.42
2023-05-16T18:49:33.811Z,98.39
2023-05-16T18:52:09.892Z,99.04
2023-05-16T18:54:43.395Z,99.08
2023-05-16T18:57:17.865Z,99.77
2023-05-16T18:59:53.534Z,99.65
2023-05-16T19:02:41.025Z,99.96
2023-05-16T19:05:16.386Z,100.00
2023-05-16T19:07:50.797Z,100.00
2023-05-16T19:10:26.099Z,100.00
2023-05-16T19:13:07.545Z,100.00
2023-05-16T19:15:42.579Z,100.00
2023-05-16T19:18:18.053Z,100.00
2023-05-16T19:20:52.114Z,100.00
2023-05-16T19:23:26.046Z,100.00
2023-05-16T19:25:59.586Z,100.00
2023-05-16T19:28:33.572Z,100.00
2023-05-16T19:31:07.834Z,100.00
2023-05-16T19:33:41.585Z,100.00
2023-05-16T19:36:15.681Z,100.00
2023-05-16T19:38:49.694Z,100.00
2023-05-16T19:41:24.771Z,100.00
2023-05-16T19:43:58.527Z,100.00
2023-05-16T19:46:32.337Z,100.00
2023-05-16T19:49:07.783Z,100.00
2023-05-16T19:51:42.552Z,100.00
2023-05-16T19:54:17.576Z,100.00
2023-05-16T19:56:52.140Z,100.00
2023-05-16T19:59:25.346Z,100.00
2023-05-16T20:01:59.050Z,100.00
2023-05-16T20:04:33.715Z,100.00
2023-05-16T20:07:08.913Z,100.00
2023-05-16T20:09:42.974Z,100.00
2023-05-16T20:12:17.104Z,100.00
2023-05-16T20:14:52.028Z,100.00
2023-05-16T20:17:26.697Z,100.00
2023-05-16T20:20:00.479Z,100.00
2023-05-16T20:22:34.757Z,100.00
2023-05-16T20:25:11.863Z,100.00
2023-05-16T20:27:45.496Z,100.00
2023-05-16T20:30:20.011Z,100.00
2023-05-16T20:32:55.319Z,100.00
2023-05-16T20:35:29.311Z,100.00
2023-05-16T20:38:02.985Z,100.00
2023-05-16T20:40:37.427Z,100.00
2023-05-16T20:43:10.995Z,100.00
2023-05-16T20:45:45.049Z,100.00
2023-05-16T20:48:19.076Z,100.00
2023-05-16T20:50:52.815Z,100.00
2023-05-16T20:53:27.857Z,100.00
2023-05-16T20:56:01.747Z,100.00
2023-05-16T20:58:35.775Z,100.00
2023-05-16T21:01:10.384Z,100.00
2023-05-16T21:03:45.597Z,100.00
2023-05-16T21:06:19.588Z,100.00
2023-05-16T21:08:53.738Z,100.00
2023-05-16T21:11:28.088Z,100.00
2023-05-16T21:14:01.557Z,100.00
2023-05-16T21:16:35.864Z,100.00
2023-05-16T21:19:10.562Z,100.00
2023-05-16T21:21:44.204Z,100.00
2023-05-16T21:24:18.637Z,100.00
2023-05-16T21:26:52.562Z,100.00
2023-05-16T21:29:26.095Z,100.00
2023-05-16T21:31:59.945Z,100.00
2023-05-16T21:34:33.644Z,100.00
2023-05-16T21:37:08.880Z,100.00
2023-05-16T21:39:42.520Z,100.00
2023-05-16T21:42:16.393Z,100.00
2023-05-16T21:44:50.827Z,100.00
2023-05-16T21:47:24.807Z,100.00
2023-05-16T21:49:58.368Z,100.00
2023-05-16T21:52:32.725Z,100.00
2023-05-16T21:55:08.097Z,100.00
2023-05-16T21:57:42.384Z,100.00
2023-05-16T22:00:19.741Z,100.00
2023-05-16T22:02:53.831Z,100.00
2023-05-16T22:05:28.542Z,100.00
2023-05-16T22:08:02.530Z,100.00
2023-05-16T22:10:36.322Z,100.00
2023-05-16T22:13:11.085Z,100.00
2023-05-16T22:15:52.209Z,100.00
2023-05-16T22:18:35.911Z,100.00
2023-05-16T22:21:09.774Z,100.00
2023-05-16T22:23:43.914Z,100.00
2023-05-16T22:26:17.912Z,100.00
2023-05-16T22:28:51.862Z,100.00
2023-05-16T22:31:25.942Z,100.00
2023-05-16T22:33:59.892Z,100.00
2023-05-16T22:36:33.903Z,100.00
2023-05-16T22:39:07.833Z,100.00
2023-05-16T22:41:41.846Z,100.00
2023-05-16T22:44:15.851Z,100.00
2023-05-16T22:46:49.932Z,100.00
2023-05-16T22:49:24.078Z,100.00
2023-05-16T22:51:57.819Z,100.00
2023-05-16T22:54:32.106Z,100.00
2023-05-16T22:57:06.010Z,100.00
2023-05-16T22:59:39.745Z,100.00
2023-05-16T23:02:13.105Z,100.00
2023-05-16T23:04:46.929Z,100.00
2023-05-16T23:07:21.117Z,100.00
2023-05-16T23:09:55.025Z,100.00
2023-05-16T23:12:28.932Z,100.00
2023-05-16T23:15:02.689Z,100.00
2023-05-16T23:17:36.446Z,100.00
2023-05-16T23:20:13.194Z,100.00
2023-05-16T23:22:46.767Z,100.00
2023-05-16T23:25:21.028Z,100.00
2023-05-16T23:27:57.650Z,100.00
2023-05-16T23:30:31.201Z,100.00
2023-05-16T23:33:05.409Z,100.00
2023-05-16T23:35:38.835Z,100.00
2023-05-16T23:38:12.672Z,100.00
2023-05-16T23:40:46.436Z,100.00
2023-05-16T23:43:20.526Z,100.00
2023-05-16T23:45:54.615Z,100.00
2023-05-16T23:48:28.476Z,100.00
2023-05-16T23:51:02.557Z,100.00
2023-05-16T23:53:36.761Z,100.00
2023-05-16T23:56:10.851Z,100.00
2023-05-16T23:58:44.585Z,100.00
